Time;durP1;ratioP1;P1;durP2;ratioP2;P2;SDS_P1;SDS_P2;PMS_P1;PMS_P2;Temp;Humidity;BMP_temperature;BMP_pressure;BME280_temperature;BME280_humidity;BME280_pressure;Samples;Min_cycle;Max_cycle;Signal;HPM_P1;HPM_P2
2021/11/01 00:01:06;;;;;;;3.27;2.87;;;16.40;1.00;16.90;99013.00;;;;5048983;28;20465;-85
2021/11/01 00:03:35;;;;;;;3.77;2.97;;;16.40;1.00;16.90;98989.00;;;;5028738;28;20504;-83
2021/11/01 00:06:07;;;;;;;3.80;3.10;;;16.30;1.00;16.80;98957.00;;;;5013420;28;20543;-82
2021/11/01 00:08:37;;;;;;;4.27;2.80;;;16.20;1.00;16.70;98967.00;;;;5024519;28;20544;-83
2021/11/01 00:11:06;;;;;;;4.10;3.20;;;16.20;1.00;16.70;98988.00;;;;5021805;28;20592;-87
2021/11/01 00:13:34;;;;;;;3.30;3.00;;;16.10;1.00;16.50;98980.00;;;;5019194;28;20437;-84
2021/11/01 00:16:05;;;;;;;3.33;3.03;;;16.00;1.00;16.40;98904.00;;;;5039293;28;20449;-84
2021/11/01 00:18:37;;;;;;;3.50;2.90;;;15.80;1.00;16.30;98881.00;;;;5011180;28;20530;-85
2021/11/01 00:21:08;;;;;;;3.60;3.23;;;15.70;1.00;16.00;98970.00;;;;5010765;28;20507;-84
2021/11/01 00:23:37;;;;;;;3.73;2.60;;;15.60;1.00;15.80;98879.00;;;;5008588;28;20453;-86
2021/11/01 00:26:06;;;;;;;5.33;2.87;;;15.50;1.00;16.00;98997.00;;;;5008192;28;20544;-83
2021/11/01 00:28:35;;;;;;;4.47;3.50;;;15.50;1.00;16.00;98997.00;;;;4995250;28;20496;-80
2021/11/01 00:31:05;;;;;;;4.73;3.43;;;15.40;1.00;16.00;99008.00;;;;5017832;28;20540;-83
2021/11/01 00:33:34;;;;;;;3.80;3.10;;;15.30;1.00;15.90;99005.00;;;;5020263;28;20807;-83
2021/11/01 00:36:04;;;;;;;4.47;3.33;;;15.40;1.00;15.90;99011.00;;;;5013891;28;20525;-85
2021/11/01 00:38:34;;;;;;;4.20;3.47;;;15.30;1.00;15.90;99006.00;;;;5030720;28;20504;-88
2021/11/01 00:41:04;;;;;;;4.30;3.57;;;15.30;1.00;15.80;99014.00;;;;5029994;28;20453;-84
2021/11/01 00:43:32;;;;;;;3.63;3.33;;;15.40;1.00;15.90;99004.00;;;;5012853;28;20446;-83
2021/11/01 00:46:00;;;;;;;4.23;3.80;;;15.20;1.00;15.80;99040.00;;;;5040971;28;20464;-86
2021/11/01 00:48:30;;;;;;;5.40;3.50;;;15.20;1.00;15.90;99043.00;;;;5021529;28;20492;-85
2021/11/01 00:50:58;;;;;;;4.20;3.30;;;15.20;1.00;15.90;98968.00;;;;5042728;28;20464;-88
2021/11/01 00:53:30;;;;;;;3.27;2.80;;;15.20;1.00;15.80;99049.00;;;;5012648;28;20473;-89
2021/11/01 00:56:02;;;;;;;3.47;3.17;;;15.10;1.00;15.80;99057.00;;;;5012259;28;20453;-85
2021/11/01 00:58:33;;;;;;;5.43;3.47;;;15.10;1.00;15.80;99063.00;;;;5010879;28;20485;-85
2021/11/01 01:01:02;;;;;;;4.40;4.00;;;15.10;1.00;15.80;99044.00;;;;5001605;28;20521;-84
2021/11/01 01:03:32;;;;;;;5.20;3.80;;;15.10;1.00;15.80;99037.00;;;;5037543;28;20438;-83
2021/11/01 01:06:03;;;;;;;4.00;3.60;;;15.10;1.00;15.90;99052.00;;;;5031225;28;20453;-83
2021/11/01 01:08:32;;;;;;;4.97;4.00;;;15.10;1.00;15.80;99042.00;;;;5023969;28;20548;-83
2021/11/01 01:11:02;;;;;;;6.03;4.50;;;15.00;1.00;15.80;99055.00;;;;5038541;28;20449;-83
2021/11/01 01:13:36;;;;;;;8.53;4.73;;;15.00;1.00;15.80;99075.00;;;;5029490;28;20536;-82
2021/11/01 01:16:10;;;;;;;7.93;5.23;;;14.90;1.00;15.80;99020.00;;;;5029929;28;20449;-83
2021/11/01 01:18:41;;;;;;;6.30;4.90;;;14.90;1.00;15.70;99048.00;;;;5010073;28;20486;-84
2021/11/01 01:23:56;;;;;;;5.67;5.13;;;14.90;1.00;15.70;99018.00;;;;5004376;28;20458;-83
2021/11/01 01:26:28;;;;;;;6.57;5.97;;;14.80;1.00;15.50;99070.00;;;;4998434;28;20498;-83
2021/11/01 01:28:57;;;;;;;12.53;6.17;;;14.70;1.00;15.60;99058.00;;;;5007301;28;20521;-83
2021/11/01 01:31:27;;;;;;;7.07;6.37;;;14.70;1.00;15.60;99061.00;;;;5016386;28;20951;-84
2021/11/01 01:33:56;;;;;;;4.57;4.17;;;14.60;1.00;15.50;99005.00;;;;5025042;28;20473;-84
2021/11/01 01:36:24;;;;;;;5.73;4.13;;;14.50;1.00;15.30;99065.00;;;;5001844;28;20846;-84
2021/11/01 01:38:53;;;;;;;5.37;3.80;;;14.40;1.00;15.20;99070.00;;;;5013969;28;20473;-84
2021/11/01 01:41:28;;;;;;;6.27;4.10;;;14.30;1.00;14.90;99089.00;;;;5016152;28;20545;-84
2021/11/01 01:43:59;;;;;;;3.53;3.20;;;14.30;1.00;15.10;99102.00;;;;5014387;28;20457;-84
2021/11/01 01:46:30;;;;;;;4.00;3.20;;;14.10;1.00;15.00;99104.00;;;;4992034;28;20454;-84
2021/11/01 01:48:59;;;;;;;3.33;2.77;;;14.10;1.00;14.90;99104.00;;;;5016606;28;20512;-84
2021/11/01 01:51:30;;;;;;;5.33;3.00;;;14.00;1.00;14.70;99109.00;;;;5016891;28;20462;-85
2021/11/01 01:54:01;;;;;;;4.00;2.43;;;14.00;1.00;14.60;99084.00;;;;5014271;28;20465;-85
2021/11/01 01:56:31;;;;;;;4.27;1.90;;;13.90;1.00;14.40;99122.00;;;;5016351;28;20464;-85
2021/11/01 01:59:05;;;;;;;3.60;1.83;;;13.70;1.00;14.20;99118.00;;;;5013851;28;21316;-87
2021/11/01 02:01:38;;;;;;;6.40;1.80;;;13.60;1.00;14.10;99141.00;;;;4999455;28;20472;-85
2021/11/01 02:04:06;;;;;;;5.77;1.73;;;13.40;1.00;13.90;99135.00;;;;4997656;28;20536;-85
2021/11/01 02:06:54;;;;;;;3.30;1.43;;;13.30;1.00;13.90;99146.00;;;;5017352;28;20456;-84
2021/11/01 02:09:29;;;;;;;6.33;1.93;;;13.10;1.00;13.80;99148.00;;;;5000355;28;20848;-84
2021/11/01 02:12:04;;;;;;;2.60;1.30;;;13.00;1.00;13.70;99144.00;;;;5018445;28;20473;-84
2021/11/01 02:14:41;;;;;;;6.40;1.93;;;12.90;1.00;13.60;99150.00;;;;5037293;28;20509;-85
2021/11/01 02:17:11;;;;;;;3.07;1.50;;;12.80;1.00;13.50;99136.00;;;;5002035;28;20496;-85
2021/11/01 02:19:46;;;;;;;4.20;1.83;;;12.70;1.00;13.50;99138.00;;;;5020443;28;20506;-85
2021/11/01 02:22:21;;;;;;;8.67;1.80;;;12.70;1.00;13.50;99140.00;;;;5015431;28;20473;-85
2021/11/01 02:25:00;;;;;;;4.50;1.90;;;12.70;1.00;13.50;99126.00;;;;4996574;28;20459;-85
2021/11/01 02:27:35;;;;;;;8.07;2.00;;;12.60;1.00;13.50;99133.00;;;;5018840;28;20538;-85
2021/11/01 02:30:05;;;;;;;6.43;1.23;;;12.60;1.00;13.60;99128.00;;;;5002549;28;20482;-83
2021/11/01 02:32:36;;;;;;;6.13;1.80;;;12.60;1.00;13.60;99098.00;;;;5031957;28;20469;-85
2021/11/01 02:35:09;;;;;;;4.23;1.70;;;12.50;1.00;13.60;99081.00;;;;5015802;28;20453;-84
2021/11/01 02:37:39;;;;;;;7.33;1.70;;;12.50;1.00;13.60;99105.00;;;;5036152;28;20509;-85
2021/11/01 02:40:09;;;;;;;11.70;2.40;;;12.40;1.00;13.60;99067.00;;;;5042871;28;20461;-85
2021/11/01 02:42:40;;;;;;;7.90;1.87;;;12.40;1.00;13.70;99129.00;;;;5045008;28;20488;-86
2021/11/01 02:45:12;;;;;;;8.40;2.20;;;12.40;1.00;13.60;99124.00;;;;5038659;28;20453;-85
2021/11/01 02:47:41;;;;;;;9.10;1.90;;;12.40;1.00;13.70;99103.00;;;;5021890;28;20471;-85
2021/11/01 02:50:13;;;;;;;9.60;2.93;;;12.40;1.00;13.70;99137.00;;;;5021601;28;20502;-85
2021/11/01 02:52:42;;;;;;;9.07;3.10;;;12.40;1.00;13.70;99098.00;;;;4996215;28;20986;-86
2021/11/01 02:55:13;;;;;;;8.20;2.53;;;12.30;1.00;13.70;99133.00;;;;5022802;28;20526;-85
2021/11/01 02:57:43;;;;;;;8.23;1.80;;;12.40;1.00;13.50;99095.00;;;;5018278;28;20519;-84
2021/11/01 03:00:14;;;;;;;4.97;1.80;;;12.40;1.00;13.50;99115.00;;;;5023858;28;20464;-85
2021/11/01 03:02:43;;;;;;;5.00;1.60;;;12.30;1.00;13.50;99070.00;;;;5037819;28;20549;-85
2021/11/01 03:05:17;;;;;;;9.00;1.80;;;12.40;1.00;13.50;99058.00;;;;4999852;28;20529;-85
2021/11/01 03:07:48;;;;;;;10.90;1.87;;;12.30;1.00;13.50;99090.00;;;;5027452;28;20453;-84
2021/11/01 03:10:17;;;;;;;12.37;2.10;;;12.40;1.00;13.40;99090.00;;;;5030172;28;20471;-85
2021/11/01 03:12:49;;;;;;;6.70;1.90;;;12.30;1.00;13.40;99037.00;;;;5011885;28;20536;-85
2021/11/01 03:15:21;;;;;;;6.27;1.80;;;12.30;1.00;13.30;99082.00;;;;5028591;28;20453;-84
2021/11/01 03:17:55;;;;;;;7.10;2.10;;;12.30;1.00;13.30;99070.00;;;;5016199;28;20441;-85
2021/11/01 03:20:27;;;;;;;6.90;2.40;;;12.30;1.00;13.10;99059.00;;;;5022205;28;20460;-85
2021/11/01 03:23:00;;;;;;;6.73;1.73;;;12.10;1.00;13.30;99059.00;;;;5003531;28;20473;-86
2021/11/01 03:25:42;;;;;;;7.20;1.87;;;12.10;1.00;13.30;99065.00;;;;5016915;28;20438;-87
2021/11/01 03:28:13;;;;;;;7.80;2.40;;;12.10;1.00;13.20;98997.00;;;;5016350;28;20472;-84
2021/11/01 03:30:43;;;;;;;5.50;1.73;;;12.10;1.00;13.10;99079.00;;;;5035126;28;20513;-85
2021/11/01 03:33:14;;;;;;;6.67;2.53;;;12.00;1.00;13.00;99068.00;;;;5039249;28;20445;-85
2021/11/01 03:35:45;;;;;;;5.70;2.00;;;12.00;1.00;12.90;99100.00;;;;5034589;28;20469;-84
2021/11/01 03:38:15;;;;;;;6.20;2.30;;;12.00;1.00;12.90;99085.00;;;;5041605;28;20500;-85
2021/11/01 03:40:46;;;;;;;8.13;2.40;;;12.00;1.00;12.90;99122.00;;;;5027806;28;20460;-85
2021/11/01 03:43:27;;;;;;;8.53;2.33;;;12.00;1.00;12.90;99148.00;;;;5022717;28;20477;-85
2021/11/01 03:45:56;;;;;;;7.93;2.40;;;11.90;1.00;12.90;99128.00;;;;5036679;28;20460;-85
2021/11/01 03:48:27;;;;;;;5.80;2.30;;;11.90;1.00;12.80;99156.00;;;;5018286;28;20479;-85
2021/11/01 03:51:02;;;;;;;10.97;2.33;;;11.90;1.00;12.80;99057.00;;;;5037863;28;20441;-87
2021/11/01 03:53:31;;;;;;;10.50;2.67;;;11.90;1.00;12.70;99147.00;;;;5037095;28;20473;-85
2021/11/01 03:56:00;;;;;;;7.87;1.97;;;11.90;1.00;12.70;99139.00;;;;5030024;28;20544;-86
2021/11/01 03:58:30;;;;;;;4.33;1.60;;;11.90;1.00;12.70;99136.00;;;;5032256;28;20470;-85
2021/11/01 04:00:59;;;;;;;4.33;1.70;;;11.90;1.00;12.70;99134.00;;;;5037448;28;20433;-84
2021/11/01 04:03:29;;;;;;;5.53;2.00;;;11.90;1.00;12.60;99165.00;;;;5014598;28;20500;-86
2021/11/01 04:06:01;;;;;;;6.33;2.13;;;11.90;1.00;12.60;99103.00;;;;5034108;28;20472;-86
2021/11/01 04:08:30;;;;;;;7.30;2.10;;;11.90;1.00;12.60;99128.00;;;;5018865;28;20495;-85
2021/11/01 04:10:59;;;;;;;5.47;2.00;;;11.90;1.00;12.60;99149.00;;;;5017057;28;20536;-85
2021/11/01 04:13:29;;;;;;;5.43;1.80;;;11.90;1.00;12.60;99134.00;;;;5026977;28;20512;-85
2021/11/01 04:16:01;;;;;;;7.63;1.97;;;11.90;1.00;12.70;99102.00;;;;5037168;28;20454;-85
2021/11/01 04:18:37;;;;;;;6.20;1.60;;;11.90;1.00;12.70;99114.00;;;;5014597;28;20537;-85
2021/11/01 04:21:09;;;;;;;5.20;1.70;;;11.90;1.00;12.70;99127.00;;;;5042988;28;20433;-84
2021/11/01 04:23:37;;;;;;;6.90;1.80;;;11.90;1.00;12.70;99128.00;;;;5014580;28;20485;-85
2021/11/01 04:26:06;;;;;;;4.60;1.50;;;11.90;1.00;12.70;99103.00;;;;5021164;28;20484;-86
2021/11/01 04:28:36;;;;;;;6.53;1.50;;;11.80;1.00;12.60;99121.00;;;;5017445;28;20495;-85
2021/11/01 04:31:10;;;;;;;4.87;1.90;;;11.80;1.00;12.60;99091.00;;;;5042282;28;20441;-86
2021/11/01 04:33:40;;;;;;;6.13;1.60;;;11.80;1.00;12.60;99107.00;;;;5028809;28;20516;-85
2021/11/01 04:36:10;;;;;;;7.40;2.00;;;11.80;1.00;12.60;99081.00;;;;5042463;28;20458;-86
2021/11/01 04:38:48;;;;;;;5.53;1.87;;;11.80;1.00;12.60;99053.00;;;;5032442;28;20525;-86
2021/11/01 04:41:22;;;;;;;5.90;1.80;;;11.80;1.00;12.60;99111.00;;;;5028668;28;20487;-84
2021/11/01 04:54:55;;;;;;;5.63;1.67;;;11.70;1.00;12.60;99142.00;;;;5006104;28;20452;-85
2021/11/01 04:57:25;;;;;;;8.00;2.00;;;11.70;1.00;12.60;99118.00;;;;5008922;28;20977;-84
2021/11/01 04:59:55;;;;;;;9.07;2.00;;;11.70;1.00;12.40;99061.00;;;;5032372;28;20486;-85
2021/11/01 05:02:25;;;;;;;8.17;2.30;;;11.70;1.00;12.60;99084.00;;;;5003200;28;20454;-85
2021/11/01 05:04:54;;;;;;;4.83;1.77;;;11.70;1.00;12.60;99120.00;;;;5021427;28;20509;-85
2021/11/01 05:07:24;;;;;;;5.83;1.80;;;11.80;1.00;12.60;99145.00;;;;4999334;28;20453;-86
2021/11/01 05:09:59;;;;;;;5.43;2.03;;;11.80;1.00;12.60;99123.00;;;;5017572;28;20489;-86
2021/11/01 05:12:30;;;;;;;4.27;1.90;;;11.70;1.00;12.50;99134.00;;;;5019723;28;20467;-85
2021/11/01 05:15:07;;;;;;;6.07;1.90;;;11.70;1.00;12.50;99039.00;;;;5020406;28;20461;-87
2021/11/01 05:17:51;;;;;;;7.27;2.40;;;11.70;1.00;12.50;99129.00;;;;5019479;28;20453;-86
2021/11/01 05:20:23;;;;;;;5.23;1.90;;;11.70;1.00;12.50;99126.00;;;;5002660;28;20449;-87
2021/11/01 05:23:02;;;;;;;5.83;2.50;;;11.70;1.00;12.50;99138.00;;;;5015275;28;20468;-87
2021/11/01 05:25:37;;;;;;;4.50;2.67;;;11.70;1.00;12.50;99163.00;;;;5003488;28;20465;-85
2021/11/01 05:28:11;;;;;;;6.80;2.60;;;11.80;1.00;12.50;99151.00;;;;4997427;28;20451;-86
2021/11/01 05:30:43;;;;;;;6.30;2.60;;;11.80;1.00;12.30;99102.00;;;;5002723;28;20463;-85
2021/11/01 05:33:41;;;;;;;4.33;2.43;;;11.90;1.00;12.40;99147.00;;;;5021523;28;20500;-86
2021/11/01 05:36:10;;;;;;;5.97;2.60;;;11.80;1.00;12.60;99150.00;;;;5003769;28;20538;-87
2021/11/01 05:38:38;;;;;;;7.47;2.80;;;11.80;1.00;12.60;99035.00;;;;5012662;28;20864;-86
2021/11/01 05:41:07;;;;;;;4.80;3.37;;;11.80;1.00;12.50;99129.00;;;;5011535;28;20809;-86
2021/11/01 05:43:39;;;;;;;9.17;3.20;;;11.80;1.00;12.50;99122.00;;;;5012977;28;20442;-85
2021/11/01 05:46:09;;;;;;;6.90;2.63;;;11.80;1.00;12.50;99102.00;;;;5013617;28;20466;-88
2021/11/01 05:48:37;;;;;;;6.80;2.80;;;11.80;1.00;12.50;99135.00;;;;5013159;28;20496;-90
2021/11/01 05:51:08;;;;;;;4.80;2.97;;;11.80;1.00;12.60;99151.00;;;;5040319;28;20465;-90
2021/11/01 05:53:39;;;;;;;5.40;2.70;;;11.80;1.00;12.60;99023.00;;;;5027570;28;20464;-89
2021/11/01 05:56:20;;;;;;;4.33;2.30;;;11.80;1.00;12.60;98992.00;;;;5021398;28;20434;-90
2021/11/01 05:58:59;;;;;;;3.27;2.40;;;11.80;1.00;12.40;99165.00;;;;5033354;28;20580;-89
2021/11/01 06:02:04;;;;;;;5.50;2.70;;;11.80;1.00;11.90;99033.00;;;;5032089;28;20537;-85
2021/11/01 06:04:44;;;;;;;5.67;3.10;;;11.70;1.00;12.50;68945.00;;;;5037216;28;20453;-86
2021/11/01 06:07:27;;;;;;;4.03;2.90;;;11.80;1.00;12.10;99169.00;;;;5027055;28;20471;-85
2021/11/01 06:10:01;;;;;;;5.03;3.30;;;11.80;1.00;12.50;99163.00;;;;5041135;28;20563;-85
2021/11/01 06:15:16;;;;;;;8.67;3.33;;;11.80;1.00;12.50;99124.00;;;;5009804;28;20518;-85
2021/11/01 06:17:47;;;;;;;6.07;2.90;;;11.80;1.00;12.50;99181.00;;;;5023948;28;20464;-86
2021/11/01 06:20:17;;;;;;;10.60;3.57;;;11.80;1.00;12.50;99129.00;;;;5005796;28;20939;-89
2021/11/01 06:22:47;;;;;;;11.30;3.63;;;11.80;1.00;12.60;99202.00;;;;5020717;28;20454;-87
2021/11/01 06:25:18;;;;;;;8.93;3.10;;;11.80;1.00;12.60;99147.00;;;;5011337;28;20501;-86
2021/11/01 06:27:53;;;;;;;6.40;3.00;;;11.70;1.00;12.40;99134.00;;;;5021460;28;20430;-89
2021/11/01 06:30:26;;;;;;;8.03;3.27;;;11.80;1.00;12.30;99192.00;;;;5021377;28;20473;-91
2021/11/01 06:33:13;;;;;;;5.97;3.10;;;11.80;1.00;12.00;99175.00;;;;5037826;28;20430;-90
2021/11/01 06:44:24;;;;;;;9.83;5.10;;;11.90;1.00;12.60;99042.00;;;;5018788;28;20422;-86
2021/11/01 06:49:55;;;;;;;6.83;5.27;;;11.90;1.00;12.70;99068.00;;;;5000897;28;20474;-86
2021/11/01 06:58:10;;;;;;;7.70;5.17;;;12.00;1.00;12.60;99205.00;;;;5000830;28;20438;-84
2021/11/01 07:14:41;;;;;;;7.37;4.50;;;11.90;1.00;12.60;99237.00;;;;5007033;28;20455;-86
2021/11/01 07:17:13;;;;;;;8.10;4.90;;;11.90;1.00;12.70;99232.00;;;;5007076;28;20804;-85
2021/11/01 07:20:09;;;;;;;6.73;4.50;;;12.10;1.00;12.80;99179.00;;;;5036743;28;20468;-86
2021/11/01 08:27:29;;;;;;;8.60;3.70;;;12.60;1.00;13.50;99270.00;;;;5024240;28;20497;-84
2021/11/01 08:41:40;;;;;;;6.80;3.83;;;13.10;1.00;13.80;99243.00;;;;5004917;28;20954;-88
2021/11/01 08:44:29;;;;;;;6.93;3.77;;;13.00;1.00;13.80;99100.00;;;;5048975;28;20421;-88
2021/11/01 08:47:26;;;;;;;8.17;2.80;;;13.00;1.00;13.70;99220.00;;;;5052803;28;20479;-87
2021/11/01 08:50:23;;;;;;;10.30;4.07;;;12.90;1.00;13.80;99253.00;;;;5048038;28;20468;-86
2021/11/01 09:07:08;;;;;;;5.27;2.90;;;13.00;1.00;13.80;99224.00;;;;5041189;28;20485;-87
2021/11/01 09:20:59;;;;;;;5.03;2.33;;;13.40;1.00;14.30;99236.00;;;;5027434;28;20850;-86
2021/11/01 09:23:45;;;;;;;4.60;2.70;;;13.50;1.00;14.50;99232.00;;;;5044202;28;20421;-85
2021/11/01 09:26:20;;;;;;;3.03;2.30;;;13.60;1.00;14.60;99239.00;;;;5040144;28;20544;-86
2021/11/01 09:28:55;;;;;;;6.20;2.40;;;13.70;1.00;14.50;99244.00;;;;5024973;28;20789;-86
2021/11/01 09:37:06;;;;;;;8.50;2.67;;;13.60;1.00;14.50;99187.00;;;;5029068;28;20441;-85
2021/11/01 09:40:54;;;;;;;5.00;2.30;;;13.50;1.00;14.30;99147.00;;;;5028612;28;20464;-84
2021/11/01 09:42:42;;;;;;;8.07;1.80;;;13.40;1.00;14.30;99126.00;;;;5025737;28;20473;-89
2021/11/01 09:51:03;;;;;;;8.73;2.50;;;13.50;1.00;14.60;99253.00;;;;5180119;23;20506;-87
2021/11/01 09:53:40;;;;;;;7.70;2.27;;;13.60;1.00;14.30;99233.00;;;;4983456;28;20865;-87
2021/11/01 09:56:21;;;;;;;7.23;2.70;;;13.80;1.00;14.90;99219.00;;;;4982793;28;20468;-88
2021/11/01 10:01:37;;;;;;;7.67;2.13;;;14.00;1.00;14.90;99223.00;;;;4974648;28;20448;-86
2021/11/01 10:04:15;;;;;;;6.07;1.97;;;14.00;1.00;14.90;99269.00;;;;4963213;28;20440;-85
2021/11/01 10:06:45;;;;;;;7.67;2.20;;;14.00;1.00;15.00;99264.00;;;;4964446;28;20566;-85
2021/11/01 10:09:15;;;;;;;6.40;2.47;;;14.00;1.00;14.50;99180.00;;;;4976644;28;20463;-88
2021/11/01 10:11:49;;;;;;;10.23;2.77;;;14.10;1.00;14.80;99222.00;;;;4980734;28;20470;-85
2021/11/01 10:14:21;;;;;;;11.20;2.30;;;14.20;1.00;14.90;99234.00;;;;4981423;28;20462;-85
2021/11/01 10:19:40;;;;;;;10.40;2.63;;;14.10;1.00;15.20;99143.00;;;;4981740;28;21011;-91
2021/11/01 10:22:17;;;;;;;3.90;1.80;;;14.10;1.00;15.00;99263.00;;;;4979286;28;20466;-86
2021/11/01 10:24:53;;;;;;;10.33;2.30;;;14.10;1.00;15.10;99241.00;;;;4970945;28;20432;-88
2021/11/01 10:27:31;;;;;;;8.07;2.30;;;14.10;1.00;15.00;99156.00;;;;4992032;28;20557;-85
2021/11/01 10:30:06;;;;;;;8.40;2.00;;;14.10;1.00;15.10;99235.00;;;;5002754;28;20545;-86
2021/11/01 10:32:41;;;;;;;3.97;1.80;;;14.00;1.00;15.10;99225.00;;;;5000118;28;20469;-85
2021/11/01 10:35:19;;;;;;;7.37;1.93;;;14.10;1.00;15.10;99021.00;;;;4999539;28;20435;-86
2021/11/01 10:38:08;;;;;;;7.90;1.73;;;14.20;1.00;15.20;99218.00;;;;4999187;28;20481;-85
2021/11/01 10:40:46;;;;;;;8.40;1.97;;;14.40;1.00;14.90;99219.00;;;;4999595;28;20423;-87
2021/11/01 11:12:05;;;;;;;5.80;2.00;;;14.30;1.00;15.30;99218.00;;;;4928571;29;20468;-84
2021/11/01 11:14:40;;;;;;;14.23;5.67;;;14.20;1.00;15.30;99216.00;;;;4965077;28;20465;-83
2021/11/01 11:17:18;;;;;;;6.20;3.47;;;14.30;1.00;15.30;99202.00;;;;4978078;28;20463;-85
2021/11/01 11:20:05;;;;;;;6.90;4.47;;;14.20;1.00;15.40;99213.00;;;;4976646;28;20471;-83
2021/11/01 11:37:43;;;;;;;7.07;1.80;;;15.10;1.00;15.80;99205.00;;;;4928716;29;20982;-83
2021/11/01 11:40:38;;;;;;;8.67;3.67;;;14.80;1.00;15.80;99206.00;;;;4989149;28;20462;-86
2021/11/01 11:49:05;;;;;;;7.03;2.20;;;15.30;1.00;16.80;99152.00;;;;4996709;28;20475;-83
2021/11/01 11:51:34;;;;;;;5.87;1.77;;;15.70;1.00;16.90;99185.00;;;;4992791;28;20478;-83
2021/11/01 11:54:06;;;;;;;5.40;1.73;;;15.70;1.00;16.80;99163.00;;;;4976278;28;20526;-83
2021/11/01 11:56:41;;;;;;;3.80;1.70;;;15.70;1.00;16.70;99185.00;;;;5000522;28;20446;-84
2021/11/01 11:59:11;;;;;;;5.30;1.80;;;15.60;1.00;16.90;99192.00;;;;4998540;28;20470;-85
2021/11/01 12:01:43;;;;;;;5.87;1.57;;;15.70;1.00;16.80;99201.00;;;;4986564;28;20917;-83
2021/11/01 12:04:28;;;;;;;5.07;1.60;;;15.70;1.00;16.70;99173.00;;;;4981321;28;20466;-84
2021/11/01 12:07:02;;;;;;;4.10;2.00;;;15.60;1.00;16.70;99181.00;;;;4984180;28;20566;-85
2021/11/01 12:09:37;;;;;;;12.40;3.03;;;15.50;1.00;16.50;99153.00;;;;4995055;28;20510;-83
2021/11/01 12:12:21;;;;;;;6.73;1.63;;;15.30;1.00;16.20;99187.00;;;;4978995;28;20450;-83
2021/11/01 12:17:40;;;;;;;5.93;1.77;;;15.00;1.00;16.00;99114.00;;;;4933513;28;20456;-83
2021/11/01 12:20:11;;;;;;;5.10;1.97;;;15.00;1.00;15.90;99073.00;;;;4979460;28;20508;-83
2021/11/01 12:22:47;;;;;;;6.30;1.57;;;15.00;1.00;15.90;99179.00;;;;4994830;28;20514;-84
2021/11/01 12:25:21;;;;;;;7.37;2.00;;;14.80;1.00;15.70;99146.00;;;;4975854;28;20466;-85
2021/11/01 12:28:03;;;;;;;6.93;1.90;;;14.70;1.00;15.50;99146.00;;;;4973548;28;20541;-85
2021/11/01 12:30:42;;;;;;;4.90;1.70;;;14.50;1.00;15.30;99160.00;;;;4973726;28;20530;-85
2021/11/01 12:33:13;;;;;;;8.17;2.30;;;14.30;1.00;15.30;99162.00;;;;4991840;28;20463;-83
2021/11/01 12:35:47;;;;;;;7.00;2.00;;;14.20;1.00;15.30;99187.00;;;;4975552;28;20546;-87
2021/11/01 12:38:21;;;;;;;5.50;2.10;;;14.10;1.00;15.30;99175.00;;;;4976256;28;20543;-84
2021/11/01 12:40:55;;;;;;;9.00;1.93;;;14.10;1.00;15.30;99185.00;;;;4973805;28;20551;-85
2021/11/01 12:43:53;;;;;;;3.80;1.60;;;14.20;1.00;15.20;99122.00;;;;4989583;28;20574;-84
2021/11/01 12:57:45;;;;;;;4.67;2.03;;;14.60;1.00;15.50;99157.00;;;;4971892;28;20445;-84
2021/11/01 13:00:15;;;;;;;5.97;1.70;;;14.50;1.00;15.50;99168.00;;;;5006135;28;20508;-90
2021/11/01 13:02:46;;;;;;;7.17;2.10;;;14.50;1.00;15.50;99158.00;;;;4993482;28;20454;-90
2021/11/01 13:05:18;;;;;;;6.13;1.60;;;14.40;1.00;15.50;99154.00;;;;5006858;28;20490;-82
2021/11/01 13:07:55;;;;;;;6.13;2.10;;;14.40;1.00;15.30;99162.00;;;;4980311;28;20470;-84
2021/11/01 13:10:34;;;;;;;6.47;1.67;;;14.30;1.00;15.10;99158.00;;;;5003548;28;20466;-85
2021/11/01 13:19:09;;;;;;;7.50;2.40;;;14.20;1.00;15.20;99147.00;;;;4990436;28;20486;-85
2021/11/01 13:21:45;;;;;;;4.90;1.77;;;14.30;1.00;15.30;99146.00;;;;4981515;28;20894;-83
2021/11/01 13:24:17;;;;;;;6.60;2.00;;;14.30;1.00;15.20;99137.00;;;;4985503;28;20459;-83
2021/11/01 13:38:06;;;;;;;6.80;1.87;;;14.50;1.00;15.60;99131.00;;;;4957593;28;20473;-82
2021/11/01 13:40:38;;;;;;;4.03;1.37;;;14.50;1.00;15.70;99068.00;;;;4970317;28;20462;-84
2021/11/01 13:43:07;;;;;;;4.57;2.00;;;14.50;1.00;15.70;99066.00;;;;4976098;28;20456;-84
2021/11/01 13:45:36;;;;;;;6.47;2.00;;;14.50;1.00;15.70;99118.00;;;;4981921;28;20458;-84
2021/11/01 13:48:30;;;;;;;4.83;2.00;;;14.50;1.00;15.60;99122.00;;;;4998811;28;20578;-83
2021/11/01 13:51:05;;;;;;;4.77;2.10;;;14.50;1.00;15.50;99136.00;;;;4967993;29;20536;-83
2021/11/01 13:53:44;;;;;;;7.90;1.77;;;14.40;1.00;15.30;99150.00;;;;4969260;28;20454;-85
2021/11/01 13:56:25;;;;;;;6.93;1.87;;;14.30;1.00;15.10;99150.00;;;;4993851;28;20431;-84
2021/11/01 13:59:00;;;;;;;7.13;2.07;;;14.10;1.00;15.00;99122.00;;;;5003511;28;20474;-83
2021/11/01 14:01:59;;;;;;;7.63;2.07;;;13.90;1.00;14.90;99134.00;;;;4992626;28;20522;-82
2021/11/01 14:12:53;;;;;;;4.37;1.90;;;13.40;1.00;14.30;99145.00;;;;4992091;28;20462;-87
2021/11/01 14:15:49;;;;;;;7.53;2.60;;;13.30;1.00;14.10;99126.00;;;;4979023;28;20462;-86
2021/11/01 14:18:46;;;;;;;9.70;2.87;;;13.20;1.00;13.90;99035.00;;;;4998863;28;20447;-84
2021/11/01 14:27:22;;;;;;;8.87;2.40;;;12.40;1.00;13.50;69194.00;;;;4981431;28;20451;-84
2021/11/01 14:35:50;;;;;;;9.50;3.23;;;12.70;1.00;14.20;99142.00;;;;4974124;28;20471;-84
2021/11/01 15:15:10;;;;;;;8.90;3.40;;;12.40;1.00;13.20;99152.00;;;;4986486;28;20470;-87
2021/11/01 15:17:48;;;;;;;3.60;2.00;;;12.40;1.00;13.00;99149.00;;;;4969238;28;20463;-85
2021/11/01 15:23:25;;;;;;;6.47;2.17;;;12.10;1.00;13.00;99144.00;;;;4964512;28;20450;-85
2021/11/01 15:32:23;;;;;;;4.70;1.93;;;11.80;1.00;12.60;99137.00;;;;4979898;28;20470;-84
2021/11/01 15:40:42;;;;;;;5.07;1.93;;;11.40;1.00;12.30;99152.00;;;;4978349;23;20510;-77
2021/11/01 16:19:19;;;;;;;2.20;1.50;;;10.60;1.00;11.40;99154.00;;;;4964442;28;20478;-77
2021/11/01 16:21:48;;;;;;;6.07;1.70;;;10.60;1.00;11.40;99152.00;;;;4963059;28;20486;-77
2021/11/01 16:24:17;;;;;;;4.00;1.97;;;10.50;1.00;11.30;99143.00;;;;4978137;28;20459;-77
2021/11/01 16:26:47;;;;;;;3.80;1.80;;;10.50;1.00;11.30;99168.00;;;;4980262;28;20463;-78
2021/11/01 16:29:19;;;;;;;5.37;1.60;;;10.50;1.00;11.30;99165.00;;;;4979505;28;20497;-78
2021/11/01 16:31:50;;;;;;;5.37;1.80;;;10.40;1.00;11.20;99171.00;;;;4963077;28;20444;-77
2021/11/01 16:34:22;;;;;;;3.93;1.83;;;10.40;1.00;11.20;99177.00;;;;4964588;28;20553;-77
2021/11/01 16:39:48;;;;;;;2.50;1.53;;;10.30;1.00;11.20;99166.00;;;;4964968;28;20478;-78
2021/11/01 16:42:28;;;;;;;4.67;1.70;;;10.30;1.00;11.10;99136.00;;;;4982426;28;20446;-78
2021/11/01 16:45:03;;;;;;;2.90;1.50;;;10.30;1.00;10.90;99168.00;;;;4961594;28;20494;-76
2021/11/01 16:47:32;;;;;;;5.37;1.50;;;10.20;1.00;11.10;99132.00;;;;4986536;28;20517;-80
2021/11/01 16:50:01;;;;;;;2.67;1.53;;;10.20;1.00;11.00;99161.00;;;;4958729;28;20534;-82
2021/11/01 16:52:30;;;;;;;8.50;2.03;;;10.20;1.00;11.00;99160.00;;;;4958406;28;20467;-77
2021/11/01 16:55:03;;;;;;;5.57;1.80;;;10.20;1.00;10.90;99183.00;;;;4960394;28;20559;-77
2021/11/01 16:57:43;;;;;;;2.97;1.73;;;10.20;1.00;10.90;99165.00;;;;4979314;28;20474;-78
2021/11/01 17:00:31;;;;;;;3.40;1.70;;;10.10;1.00;10.90;99181.00;;;;4979840;28;20552;-79
2021/11/01 17:03:10;;;;;;;2.93;1.70;;;10.10;1.00;10.90;99188.00;;;;4959291;28;20463;-76
2021/11/01 17:05:48;;;;;;;2.93;1.30;;;10.10;1.00;10.80;99143.00;;;;4949244;28;20854;-78
2021/11/01 17:24:59;;;;;;;5.37;2.30;;;9.80;1.00;10.80;99200.00;;;;4970395;28;20530;-77
2021/11/01 17:28:08;;;;;;;4.57;2.70;;;9.70;1.00;10.70;99182.00;;;;4976112;28;20463;-77
2021/11/01 17:31:08;;;;;;;31.70;28.90;;;9.60;1.00;10.70;99197.00;;;;4957296;28;20993;-76
2021/11/01 17:36:58;;;;;;;39.83;36.40;;;9.70;1.00;10.60;99148.00;;;;4928638;29;20457;-76
2021/11/01 18:41:36;;;;;;;9.83;8.10;;;8.60;1.00;10.00;99195.00;;;;4971344;28;20978;-77
2021/11/01 18:52:36;;;;;;;10.50;8.30;;;8.70;1.00;9.90;99165.00;;;;4959606;28;20455;-78
2021/11/01 18:55:08;;;;;;;10.80;7.17;;;8.70;1.00;9.90;99191.00;;;;4970710;28;20840;-78
2021/11/01 18:57:38;;;;;;;8.83;6.60;;;8.60;1.00;9.90;99190.00;;;;4960446;28;20490;-77
2021/11/01 19:00:10;;;;;;;10.03;6.60;;;8.60;1.00;9.90;99181.00;;;;4979195;28;20547;-78
2021/11/01 19:02:46;;;;;;;10.97;6.77;;;8.60;1.00;9.90;99158.00;;;;4965735;28;20458;-77